createdAt,value
2018-03-23T00:01:18.595Z,77.90
2018-03-23T00:03:46.769Z,78.20
2018-03-23T00:06:14.959Z,78.10
2018-03-23T00:08:43.125Z,78.10
2018-03-23T00:11:12.042Z,78.20
2018-03-23T00:13:40.214Z,78.50
2018-03-23T00:16:08.381Z,78.90
2018-03-23T00:18:36.569Z,78.80
2018-03-23T00:21:05.507Z,78.60
2018-03-23T00:23:33.703Z,78.50
2018-03-23T00:26:01.870Z,78.70
2018-03-23T00:28:30.067Z,78.90
2018-03-23T00:30:58.249Z,79.00
2018-03-23T00:33:26.424Z,79.30
2018-03-23T00:35:54.601Z,79.90
2018-03-23T00:38:22.824Z,79.40
2018-03-23T00:40:51.014Z,79.40
2018-03-23T00:43:19.181Z,79.60
2018-03-23T00:45:47.386Z,79.60
2018-03-23T00:48:15.559Z,79.70
2018-03-23T00:50:43.736Z,80.10
2018-03-23T00:53:11.907Z,80.20
2018-03-23T00:55:40.078Z,80.40
2018-03-23T00:58:08.252Z,80.70
2018-03-23T01:00:36.461Z,80.70
2018-03-23T01:03:05.426Z,81.60
2018-03-23T01:05:33.591Z,81.60
2018-03-23T01:08:01.775Z,82.10
2018-03-23T01:10:29.971Z,82.50
2018-03-23T01:12:58.918Z,83.00
2018-03-23T01:15:27.133Z,83.10
2018-03-23T01:17:55.314Z,83.40
2018-03-23T01:20:24.259Z,84.00
2018-03-23T01:22:52.453Z,83.80
2018-03-23T01:25:20.662Z,83.40
2018-03-23T01:27:49.608Z,82.80
2018-03-23T01:30:17.790Z,82.80
2018-03-23T01:32:45.976Z,83.00
2018-03-23T01:35:14.178Z,83.10
2018-03-23T01:37:43.169Z,82.80
2018-03-23T01:40:12.114Z,83.10
2018-03-23T01:42:40.307Z,83.10
2018-03-23T01:45:08.486Z,83.00
2018-03-23T01:47:36.664Z,83.10
2018-03-23T01:50:04.872Z,83.00
2018-03-23T01:52:33.843Z,83.60
2018-03-23T01:55:02.050Z,83.50
2018-03-23T01:57:30.230Z,84.70
2018-03-23T01:59:58.464Z,84.00
2018-03-23T02:02:26.654Z,84.00
2018-03-23T02:04:55.597Z,84.70
2018-03-23T02:07:23.777Z,84.50
2018-03-23T02:09:52.722Z,85.50
2018-03-23T02:12:21.673Z,84.90
2018-03-23T02:14:49.886Z,84.90
2018-03-23T02:17:18.827Z,85.20
2018-03-23T02:19:47.046Z,85.10
2018-03-23T02:22:15.225Z,84.90
2018-03-23T02:24:44.182Z,84.60
2018-03-23T02:27:12.369Z,84.50
2018-03-23T02:29:40.562Z,84.40
2018-03-23T02:32:09.552Z,86.30
2018-03-23T02:34:37.748Z,85.90
2018-03-23T02:37:05.941Z,86.10
2018-03-23T02:39:34.126Z,86.30
2018-03-23T02:42:02.307Z,86.60
2018-03-23T02:44:30.498Z,86.90
2018-03-23T02:46:58.688Z,87.00
2018-03-23T02:49:26.948Z,87.10
2018-03-23T02:51:55.130Z,87.30
2018-03-23T02:54:23.306Z,87.40
2018-03-23T02:56:51.497Z,87.20
2018-03-23T02:59:19.687Z,87.20
2018-03-23T03:01:48.633Z,87.50
2018-03-23T03:04:16.815Z,87.50
2018-03-23T03:06:44.991Z,87.40
2018-03-23T03:09:13.199Z,87.20
2018-03-23T03:11:42.148Z,87.50
2018-03-23T03:14:10.330Z,87.20
2018-03-23T03:16:38.536Z,87.20
2018-03-23T03:19:06.747Z,87.40
2018-03-23T03:21:34.922Z,88.20
2018-03-23T03:24:03.105Z,87.70
2018-03-23T03:26:31.284Z,87.80
2018-03-23T03:28:59.471Z,87.70
2018-03-23T03:31:27.658Z,88.00
2018-03-23T03:33:55.848Z,88.30
2018-03-23T03:36:24.025Z,88.10
2018-03-23T03:38:52.209Z,88.20
2018-03-23T03:41:20.399Z,88.50
2018-03-23T03:43:49.347Z,88.00
2018-03-23T03:46:17.536Z,88.00
2018-03-23T03:48:45.714Z,87.70
2018-03-23T03:51:13.914Z,87.70
2018-03-23T03:53:42.942Z,88.20
2018-03-23T03:56:11.116Z,88.10
2018-03-23T03:58:39.313Z,88.30
2018-03-23T04:01:07.519Z,89.40
2018-03-23T04:03:35.701Z,88.60
2018-03-23T04:06:04.663Z,88.60
2018-03-23T04:08:32.897Z,87.90
2018-03-23T04:11:01.054Z,87.10
2018-03-23T04:13:29.996Z,86.00
2018-03-23T04:15:58.191Z,85.90
2018-03-23T04:18:26.382Z,86.20
2018-03-23T04:20:54.731Z,85.60
2018-03-23T04:23:22.902Z,85.00
2018-03-23T04:25:51.125Z,84.90
2018-03-23T04:28:20.109Z,84.70
2018-03-23T04:30:48.298Z,84.60
2018-03-23T04:33:17.246Z,84.80
2018-03-23T04:35:45.427Z,84.70
2018-03-23T04:38:13.622Z,84.60
2018-03-23T04:40:41.802Z,84.50
2018-03-23T04:43:10.763Z,84.40
2018-03-23T04:45:38.930Z,84.40
2018-03-23T04:48:07.141Z,84.20
2018-03-23T04:50:35.348Z,84.30
2018-03-23T04:53:03.526Z,84.40
2018-03-23T04:55:31.703Z,84.20
2018-03-23T04:57:59.879Z,83.70
2018-03-23T05:00:28.052Z,83.10
2018-03-23T05:02:56.224Z,83.10
2018-03-23T05:05:24.401Z,83.30
2018-03-23T05:07:52.582Z,83.50
2018-03-23T05:10:20.768Z,83.50
2018-03-23T05:12:48.971Z,84.00
2018-03-23T05:15:18.653Z,84.80
2018-03-23T05:17:46.855Z,84.70
2018-03-23T05:20:15.031Z,84.30
2018-03-23T05:22:43.214Z,84.20
2018-03-23T05:25:11.400Z,83.40
2018-03-23T05:27:40.384Z,83.70
2018-03-23T05:30:08.602Z,83.50
2018-03-23T05:32:36.795Z,82.90
2018-03-23T05:35:04.956Z,83.10
2018-03-23T05:37:33.115Z,82.90
2018-03-23T05:40:01.300Z,82.70
2018-03-23T05:42:29.464Z,81.70
2018-03-23T05:44:58.395Z,83.60
2018-03-23T05:47:26.566Z,83.60
2018-03-23T05:49:54.735Z,82.60
2018-03-23T05:52:22.892Z,82.00
2018-03-23T05:54:51.055Z,83.80
2018-03-23T05:57:19.998Z,83.50
2018-03-23T05:59:48.171Z,83.50
2018-03-23T06:02:16.331Z,83.00
2018-03-23T06:04:44.509Z,85.00
2018-03-23T06:07:12.692Z,83.50
2018-03-23T06:09:40.884Z,84.00
2018-03-23T06:12:09.164Z,82.70
2018-03-23T06:14:37.325Z,82.90
2018-03-23T06:17:05.506Z,82.80
2018-03-23T06:19:33.696Z,82.30
2018-03-23T06:22:01.855Z,81.20
2018-03-23T06:24:30.026Z,80.70
2018-03-23T06:26:58.222Z,80.70
2018-03-23T06:29:26.422Z,81.00
2018-03-23T06:31:54.656Z,80.20
2018-03-23T06:34:22.838Z,79.70
2018-03-23T06:36:51.050Z,79.40
2018-03-23T06:39:19.217Z,79.50
2018-03-23T06:41:47.392Z,78.90
2018-03-23T06:44:16.323Z,79.00
2018-03-23T06:46:44.490Z,79.00
2018-03-23T06:49:12.658Z,78.70
2018-03-23T06:51:40.826Z,78.20
2018-03-23T06:54:09.010Z,77.50
2018-03-23T06:56:37.174Z,77.00
2018-03-23T06:59:05.338Z,76.30
2018-03-23T07:01:33.502Z,76.50
2018-03-23T07:04:02.433Z,76.50
2018-03-23T07:06:30.604Z,76.40
2018-03-23T07:08:58.771Z,76.10
2018-03-23T07:11:26.971Z,75.30
2018-03-23T07:13:55.136Z,74.30
2018-03-23T08:38:21.013Z,73.40
2018-03-23T08:40:49.200Z,59.60
2018-03-23T08:43:17.364Z,59.50
2018-03-23T08:45:45.534Z,59.00
2018-03-23T08:48:13.693Z,59.00
2018-03-23T08:50:41.863Z,58.40
2018-03-23T08:53:10.044Z,58.50
2018-03-23T08:55:38.213Z,56.90
2018-03-23T08:58:06.393Z,56.50
2018-03-23T09:00:34.572Z,55.90
2018-03-23T09:03:02.737Z,55.90
2018-03-23T09:05:30.907Z,56.20
2018-03-23T09:07:59.082Z,56.90
2018-03-23T09:10:27.252Z,56.50
2018-03-23T09:12:55.421Z,55.70
2018-03-23T09:15:24.360Z,54.70
2018-03-23T09:17:52.539Z,54.70
2018-03-23T09:20:20.717Z,54.30
2018-03-23T09:22:48.890Z,52.90
2018-03-23T09:25:17.057Z,52.70
2018-03-23T09:27:45.227Z,53.20
2018-03-23T09:30:13.403Z,52.50
2018-03-23T09:32:41.567Z,50.30
2018-03-23T09:35:09.741Z,50.70
2018-03-23T09:37:37.910Z,51.00
2018-03-23T09:40:06.073Z,50.70
2018-03-23T09:42:34.244Z,49.50
2018-03-23T09:45:02.433Z,49.50
2018-03-23T09:47:30.611Z,50.30
2018-03-23T09:49:58.772Z,50.10
2018-03-23T09:52:26.938Z,49.40
2018-03-23T09:54:55.123Z,50.30
2018-03-23T09:57:23.283Z,49.40
2018-03-23T09:59:52.204Z,48.90
2018-03-23T10:02:20.377Z,48.80
2018-03-23T10:04:48.543Z,48.40
2018-03-23T10:07:16.759Z,47.80
2018-03-23T10:09:44.956Z,47.70
2018-03-23T10:12:13.884Z,47.10
2018-03-23T10:14:42.050Z,46.80
2018-03-23T10:17:10.253Z,45.50
2018-03-23T10:19:38.420Z,45.30
2018-03-23T10:22:06.606Z,45.20
2018-03-23T10:24:34.773Z,45.40
2018-03-23T10:27:02.945Z,45.20
2018-03-23T10:29:31.122Z,45.00
2018-03-23T10:31:59.292Z,45.20
2018-03-23T10:34:27.462Z,46.50
2018-03-23T10:36:55.629Z,44.60
2018-03-23T10:39:23.827Z,43.10
2018-03-23T10:41:52.007Z,42.90
2018-03-23T10:44:20.177Z,42.40
2018-03-23T10:46:48.359Z,42.20
2018-03-23T10:49:16.554Z,42.70
2018-03-23T10:51:45.523Z,43.10
2018-03-23T10:54:13.722Z,43.00
2018-03-23T10:56:41.895Z,44.20
2018-03-23T10:59:10.064Z,44.40
2018-03-23T11:01:43.760Z,44.20
2018-03-23T11:04:11.926Z,43.80
2018-03-23T11:06:40.119Z,42.50
2018-03-23T11:09:08.367Z,42.20
2018-03-23T11:11:36.547Z,41.80
2018-03-23T11:14:04.731Z,42.00
2018-03-23T11:16:32.898Z,41.70
2018-03-23T11:19:01.076Z,41.10
2018-03-23T11:21:29.257Z,40.70
2018-03-23T11:23:57.437Z,40.60
2018-03-23T11:26:25.608Z,41.00
2018-03-23T11:28:54.007Z,42.40
2018-03-23T11:31:22.182Z,43.10
2018-03-23T11:33:50.357Z,42.40
2018-03-23T11:36:18.532Z,41.90
2018-03-23T11:38:46.712Z,41.90
2018-03-23T11:41:15.660Z,37.20
2018-03-23T11:43:43.830Z,37.10
2018-03-23T11:46:12.157Z,35.40
2018-03-23T11:48:41.113Z,37.10
2018-03-23T11:51:09.486Z,37.00
2018-03-23T11:53:37.652Z,38.90
2018-03-23T11:56:05.828Z,38.90
2018-03-23T11:58:34.103Z,37.40
2018-03-23T12:01:02.285Z,36.30
2018-03-23T12:03:30.461Z,34.30
2018-03-23T12:05:58.629Z,35.00
2018-03-23T12:08:26.794Z,36.30
2018-03-23T12:10:54.964Z,37.50
2018-03-23T12:13:23.154Z,39.10
2018-03-23T12:15:51.327Z,40.70
2018-03-23T12:18:19.512Z,41.70
2018-03-23T12:20:47.683Z,41.30
2018-03-23T12:23:15.949Z,41.50
2018-03-23T12:25:44.142Z,42.70
2018-03-23T12:28:12.315Z,43.20
2018-03-23T12:30:40.488Z,41.80
2018-03-23T12:33:09.436Z,41.80
2018-03-23T12:35:38.378Z,43.10
2018-03-23T12:38:06.558Z,43.00
2018-03-23T12:40:34.757Z,44.30
2018-03-23T12:43:02.931Z,46.40
2018-03-23T12:45:31.128Z,46.80
2018-03-23T12:48:00.152Z,46.90
2018-03-23T12:50:28.329Z,46.80
2018-03-23T12:52:56.507Z,46.80
2018-03-23T12:55:24.674Z,46.30
2018-03-23T12:57:52.885Z,46.80
2018-03-23T13:00:21.061Z,47.60
2018-03-23T13:02:49.236Z,48.60
2018-03-23T13:05:17.399Z,49.30
2018-03-23T13:07:45.594Z,48.70
2018-03-23T13:10:13.761Z,47.80
2018-03-23T13:12:41.926Z,47.40
2018-03-23T13:15:10.862Z,48.00
2018-03-23T13:17:39.791Z,48.00
2018-03-23T13:20:07.958Z,47.90
2018-03-23T13:22:36.206Z,48.30
2018-03-23T13:25:04.321Z,48.70
2018-03-23T13:27:32.486Z,48.70
2018-03-23T13:30:00.675Z,48.50
2018-03-23T13:32:28.840Z,48.40
2018-03-23T13:34:57.009Z,48.70
2018-03-23T13:37:25.188Z,49.50
2018-03-23T13:39:53.355Z,49.20
2018-03-23T13:42:21.531Z,49.00
2018-03-23T13:44:49.733Z,49.00
2018-03-23T13:47:17.906Z,48.40
2018-03-23T13:49:46.091Z,41.40
2018-03-23T13:52:14.265Z,40.20
2018-03-23T13:54:42.434Z,41.40
2018-03-23T13:57:10.608Z,43.00
2018-03-23T13:59:44.265Z,44.90
2018-03-23T14:02:12.452Z,47.30
2018-03-23T14:04:40.610Z,48.30
2018-03-23T14:07:08.780Z,48.60
2018-03-23T14:09:36.950Z,49.10
2018-03-23T14:12:05.137Z,48.90
2018-03-23T14:14:33.302Z,49.00
2018-03-23T14:17:01.471Z,48.90
2018-03-23T14:19:30.414Z,50.70
2018-03-23T14:21:58.604Z,50.70
2018-03-23T14:24:26.775Z,51.00
2018-03-23T14:26:54.962Z,51.50
2018-03-23T14:29:23.894Z,52.00
2018-03-23T14:31:52.059Z,51.90
2018-03-23T14:34:20.255Z,52.20
2018-03-23T14:36:48.432Z,52.50
2018-03-23T14:39:16.596Z,52.50
2018-03-23T14:41:44.778Z,51.90
2018-03-23T14:44:12.961Z,52.10
2018-03-23T14:46:41.197Z,52.30
2018-03-23T14:49:09.347Z,52.60
2018-03-23T14:51:37.531Z,52.40
2018-03-23T14:54:06.468Z,52.90
2018-03-23T14:56:34.638Z,52.30
2018-03-23T14:59:08.302Z,51.50
2018-03-23T15:01:37.242Z,42.10
2018-03-23T15:04:05.431Z,42.10
2018-03-23T15:06:33.605Z,41.20
2018-03-23T15:09:01.797Z,40.80
2018-03-23T15:11:29.980Z,38.80
2018-03-23T15:14:19.021Z,38.40
2018-03-23T15:16:47.203Z,39.50
2018-03-23T15:19:15.379Z,40.70
2018-03-23T15:21:43.584Z,40.20
2018-03-23T15:24:11.747Z,41.30
2018-03-23T15:26:39.922Z,41.40
2018-03-23T15:29:08.874Z,37.50
2018-03-23T15:31:37.045Z,37.30
2018-03-23T15:34:05.218Z,36.40
2018-03-23T15:36:33.411Z,36.90
2018-03-23T15:39:02.350Z,36.30
2018-03-23T15:41:31.285Z,36.90
2018-03-23T15:43:59.462Z,36.80
2018-03-23T15:46:27.645Z,38.00
2018-03-23T15:48:55.827Z,39.10
2018-03-23T15:51:23.998Z,39.20
2018-03-23T15:53:52.175Z,38.70
2018-03-23T15:56:20.426Z,37.90
2018-03-23T15:58:48.681Z,36.50
2018-03-23T16:01:16.850Z,36.40
2018-03-23T16:03:45.794Z,37.10
2018-03-23T16:06:13.961Z,37.00
2018-03-23T16:08:42.144Z,37.40
2018-03-23T16:11:11.085Z,37.00
2018-03-23T16:13:40.017Z,37.00
2018-03-23T16:16:08.246Z,37.10
2018-03-23T16:18:37.230Z,38.30
2018-03-23T16:21:06.180Z,38.60
2018-03-23T16:23:34.404Z,38.60
2018-03-23T16:26:03.374Z,38.90
2018-03-23T16:28:32.298Z,39.20
2018-03-23T16:31:00.490Z,39.20
2018-03-23T16:33:28.670Z,39.80
2018-03-23T16:35:56.918Z,40.70
2018-03-23T16:38:25.852Z,42.30
2018-03-23T16:40:54.036Z,42.80
2018-03-23T16:43:22.210Z,42.90
2018-03-23T16:45:50.385Z,43.70
2018-03-23T16:48:18.540Z,45.90
2018-03-23T16:50:46.756Z,46.90
2018-03-23T16:53:14.908Z,47.70
2018-03-23T16:55:43.065Z,48.40
2018-03-23T16:58:11.223Z,48.50
2018-03-23T17:00:39.380Z,49.30
2018-03-23T17:03:07.586Z,50.30
2018-03-23T17:05:35.773Z,50.80
2018-03-23T17:08:03.936Z,51.00
2018-03-23T17:10:32.095Z,51.50
2018-03-23T17:13:00.267Z,51.70
2018-03-23T17:15:28.443Z,52.30
2018-03-23T17:17:56.599Z,52.50
2018-03-23T17:20:25.546Z,53.10
2018-03-23T17:22:53.712Z,53.00
2018-03-23T17:25:21.886Z,53.20
2018-03-23T17:27:50.045Z,53.90
2018-03-23T17:30:18.208Z,53.60
2018-03-23T17:32:46.373Z,53.50
2018-03-23T17:35:14.545Z,54.00
2018-03-23T17:37:42.720Z,54.20
2018-03-23T17:40:10.898Z,54.90
2018-03-23T17:42:39.096Z,55.10
2018-03-23T17:45:07.257Z,55.80
2018-03-23T17:47:35.448Z,56.10
2018-03-23T17:50:03.615Z,56.60
2018-03-23T17:52:31.771Z,55.80
2018-03-23T17:54:59.931Z,56.10
2018-03-23T17:57:28.883Z,56.80
2018-03-23T17:59:58.201Z,56.70
2018-03-23T18:02:26.361Z,57.20
2018-03-23T18:04:54.527Z,57.30
2018-03-23T18:07:22.683Z,57.40
2018-03-23T18:09:50.904Z,57.50
2018-03-23T18:12:19.077Z,57.80
2018-03-23T18:14:47.238Z,58.20
2018-03-23T18:17:15.408Z,58.80
2018-03-23T18:19:43.571Z,59.10
2018-03-23T18:22:11.744Z,59.50
2018-03-23T18:24:40.928Z,59.80
2018-03-23T18:27:09.099Z,61.00
2018-03-23T18:29:37.282Z,60.50
2018-03-23T18:32:05.451Z,60.80
2018-03-23T18:34:33.615Z,60.30
2018-03-23T18:37:01.779Z,61.40
2018-03-23T18:39:29.947Z,62.60
2018-03-23T18:41:58.878Z,61.50
2018-03-23T18:44:27.043Z,61.50
2018-03-23T18:46:55.221Z,61.20
2018-03-23T18:49:23.402Z,61.60
2018-03-23T18:51:51.616Z,61.40
2018-03-23T18:54:20.519Z,61.40
2018-03-23T18:56:49.458Z,61.70
2018-03-23T18:59:17.644Z,61.60
2018-03-23T19:01:45.826Z,61.30
2018-03-23T19:04:13.997Z,61.30
2018-03-23T19:06:42.169Z,61.20
2018-03-23T19:09:10.401Z,61.30
2018-03-23T19:11:38.528Z,61.30
2018-03-23T19:14:06.705Z,61.70
2018-03-23T19:16:34.897Z,61.70
2018-03-23T19:19:03.105Z,62.00
2018-03-23T19:21:31.289Z,62.30
2018-03-23T19:23:59.468Z,62.20
2018-03-23T19:26:27.643Z,62.70
2018-03-23T19:28:55.883Z,63.50
2018-03-23T19:31:24.831Z,63.50
2018-03-23T19:33:52.999Z,63.40
2018-03-23T19:36:21.172Z,63.90
2018-03-23T19:38:49.328Z,64.50
2018-03-23T19:41:17.493Z,63.90
2018-03-23T19:43:45.654Z,64.20
2018-03-23T19:46:14.663Z,64.60
2018-03-23T19:48:42.958Z,64.50
2018-03-23T19:51:11.149Z,65.10
2018-03-23T19:53:39.315Z,65.40
2018-03-23T19:56:07.505Z,65.60
2018-03-23T19:58:35.715Z,65.70
2018-03-23T20:01:04.716Z,66.30
2018-03-23T20:03:34.056Z,66.20
2018-03-23T20:06:03.614Z,66.90
2018-03-23T20:08:33.892Z,66.80
2018-03-23T20:11:03.213Z,66.80
2018-03-23T20:13:32.710Z,66.90
2018-03-23T20:16:02.021Z,66.90
2018-03-23T20:18:30.242Z,66.90
2018-03-23T20:21:04.019Z,67.30
2018-03-23T20:23:32.542Z,67.40
2018-03-23T21:47:59.152Z,70.60
2018-03-23T21:50:27.324Z,70.40
2018-03-23T21:52:55.490Z,71.30
2018-03-23T21:55:23.652Z,70.50
2018-03-23T21:57:52.578Z,70.50
2018-03-23T22:00:20.765Z,70.30
2018-03-23T22:02:48.932Z,70.60
2018-03-23T22:05:17.084Z,70.60
2018-03-23T22:07:45.243Z,70.70
2018-03-23T22:10:13.457Z,71.00
2018-03-23T22:12:41.625Z,71.30
2018-03-23T22:15:09.781Z,71.50
2018-03-23T22:17:37.944Z,71.80
2018-03-23T22:20:06.111Z,72.30
2018-03-23T22:22:35.044Z,72.80
2018-03-23T22:25:03.202Z,72.70
2018-03-23T22:27:31.372Z,72.90
2018-03-23T22:29:59.572Z,72.60
2018-03-23T22:32:27.760Z,72.60
2018-03-23T22:34:55.931Z,72.40
2018-03-23T22:37:24.098Z,72.70
2018-03-23T22:39:52.259Z,72.40
2018-03-23T22:42:20.418Z,72.30
2018-03-23T22:44:48.576Z,72.40
2018-03-23T22:47:17.507Z,74.20
2018-03-23T22:49:45.668Z,74.20
2018-03-23T22:52:13.831Z,73.70
2018-03-23T22:54:42.022Z,73.90
2018-03-23T22:57:10.196Z,74.40
2018-03-23T22:59:38.438Z,74.70
2018-03-23T23:02:07.524Z,75.30
2018-03-23T23:04:36.458Z,76.00
2018-03-23T23:07:04.646Z,75.90
2018-03-23T23:09:32.822Z,76.00
2018-03-23T23:12:00.995Z,76.30
2018-03-23T23:14:29.162Z,76.30
2018-03-23T23:16:57.318Z,76.60
2018-03-23T23:19:25.506Z,76.70
2018-03-23T23:21:53.689Z,76.40
2018-03-23T23:24:21.852Z,76.30
2018-03-23T23:26:50.011Z,76.60
2018-03-23T23:29:18.182Z,76.90
2018-03-23T23:31:46.334Z,77.90
2018-03-23T23:34:15.272Z,77.70
2018-03-23T23:36:43.434Z,77.70
2018-03-23T23:39:11.594Z,78.00
2018-03-23T23:41:39.755Z,78.10
2018-03-23T23:44:08.694Z,78.20
2018-03-23T23:46:36.878Z,78.10
2018-03-23T23:49:05.808Z,78.30
2018-03-23T23:51:34.746Z,78.20
2018-03-23T23:54:02.926Z,78.20
2018-03-23T23:56:31.086Z,78.20
2018-03-23T23:58:59.246Z,78.20
